sensor_id;sensor_type;location;lat;lon;timestamp;P1;durP1;ratioP1;P2;durP2;ratioP2
8488;SDS011;4281;45.772;12.852;2022-12-11T00:00:24;5.20;;;4.70;;
8488;SDS011;4281;45.772;12.852;2022-12-11T00:02:52;5.20;;;4.70;;
8488;SDS011;4281;45.772;12.852;2022-12-11T00:05:21;5.67;;;4.77;;
8488;SDS011;4281;45.772;12.852;2022-12-11T00:07:49;5.20;;;4.70;;
8488;SDS011;4281;45.772;12.852;2022-12-11T00:10:27;5.13;;;4.63;;
8488;SDS011;4281;45.772;12.852;2022-12-11T00:13:03;5.57;;;4.80;;
8488;SDS011;4281;45.772;12.852;2022-12-11T00:15:31;5.20;;;4.70;;
8488;SDS011;4281;45.772;12.852;2022-12-11T00:17:59;4.90;;;4.40;;
8488;SDS011;4281;45.772;12.852;2022-12-11T00:20:28;5.20;;;4.70;;
8488;SDS011;4281;45.772;12.852;2022-12-11T00:22:56;4.57;;;4.17;;
8488;SDS011;4281;45.772;12.852;2022-12-11T00:25:24;5.30;;;4.80;;
8488;SDS011;4281;45.772;12.852;2022-12-11T00:27:51;4.70;;;4.30;;
8488;SDS011;4281;45.772;12.852;2022-12-11T00:30:19;5.20;;;4.70;;
8488;SDS011;4281;45.772;12.852;2022-12-11T00:32:47;4.80;;;4.30;;
8488;SDS011;4281;45.772;12.852;2022-12-11T00:35:18;4.97;;;4.47;;
8488;SDS011;4281;45.772;12.852;2022-12-11T00:37:49;4.87;;;4.47;;
8488;SDS011;4281;45.772;12.852;2022-12-11T00:43:13;5.07;;;4.63;;
8488;SDS011;4281;45.772;12.852;2022-12-11T00:45:51;5.97;;;5.37;;
8488;SDS011;4281;45.772;12.852;2022-12-11T00:48:29;5.63;;;5.10;;
8488;SDS011;4281;45.772;12.852;2022-12-11T00:51:07;5.03;;;4.53;;
8488;SDS011;4281;45.772;12.852;2022-12-11T00:53:47;5.00;;;4.50;;
8488;SDS011;4281;45.772;12.852;2022-12-11T00:56:21;5.27;;;4.77;;
8488;SDS011;4281;45.772;12.852;2022-12-11T00:58:57;5.00;;;4.50;;
8488;SDS011;4281;45.772;12.852;2022-12-11T01:01:26;5.57;;;4.87;;
8488;SDS011;4281;45.772;12.852;2022-12-11T01:04:03;5.33;;;4.93;;
8488;SDS011;4281;45.772;12.852;2022-12-11T01:06:38;5.43;;;4.93;;
8488;SDS011;4281;45.772;12.852;2022-12-11T01:09:19;5.07;;;4.60;;
8488;SDS011;4281;45.772;12.852;2022-12-11T01:12:10;4.77;;;4.37;;
8488;SDS011;4281;45.772;12.852;2022-12-11T01:14:45;4.60;;;4.20;;
8488;SDS011;4281;45.772;12.852;2022-12-11T01:17:23;5.17;;;4.77;;
8488;SDS011;4281;45.772;12.852;2022-12-11T01:20:02;5.17;;;4.67;;
8488;SDS011;4281;45.772;12.852;2022-12-11T01:22:42;5.27;;;4.70;;
8488;SDS011;4281;45.772;12.852;2022-12-11T01:25:21;5.40;;;4.90;;
8488;SDS011;4281;45.772;12.852;2022-12-11T01:27:49;5.30;;;4.80;;
8488;SDS011;4281;45.772;12.852;2022-12-11T01:30:18;5.40;;;4.90;;
8488;SDS011;4281;45.772;12.852;2022-12-11T01:32:47;5.13;;;4.63;;
8488;SDS011;4281;45.772;12.852;2022-12-11T01:35:15;5.27;;;4.87;;
8488;SDS011;4281;45.772;12.852;2022-12-11T01:37:44;4.70;;;4.30;;
8488;SDS011;4281;45.772;12.852;2022-12-11T01:40:13;5.13;;;4.63;;
8488;SDS011;4281;45.772;12.852;2022-12-11T01:42:43;5.20;;;4.80;;
8488;SDS011;4281;45.772;12.852;2022-12-11T01:47:56;5.23;;;4.73;;
8488;SDS011;4281;45.772;12.852;2022-12-11T01:50:28;5.20;;;4.70;;
8488;SDS011;4281;45.772;12.852;2022-12-11T01:52:56;5.90;;;5.30;;
8488;SDS011;4281;45.772;12.852;2022-12-11T01:55:24;6.27;;;5.67;;
8488;SDS011;4281;45.772;12.852;2022-12-11T01:57:53;6.23;;;5.63;;
8488;SDS011;4281;45.772;12.852;2022-12-11T02:00:21;6.47;;;5.70;;
8488;SDS011;4281;45.772;12.852;2022-12-11T02:02:50;5.83;;;5.23;;
8488;SDS011;4281;45.772;12.852;2022-12-11T02:05:18;5.70;;;4.90;;
8488;SDS011;4281;45.772;12.852;2022-12-11T02:07:48;5.57;;;5.07;;
8488;SDS011;4281;45.772;12.852;2022-12-11T02:10:18;6.87;;;5.30;;
8488;SDS011;4281;45.772;12.852;2022-12-11T02:12:50;5.80;;;5.30;;
8488;SDS011;4281;45.772;12.852;2022-12-11T02:15:27;5.47;;;4.97;;
8488;SDS011;4281;45.772;12.852;2022-12-11T02:18:02;5.80;;;5.30;;
8488;SDS011;4281;45.772;12.852;2022-12-11T02:20:40;5.90;;;5.40;;
8488;SDS011;4281;45.772;12.852;2022-12-11T02:23:23;5.77;;;5.27;;
8488;SDS011;4281;45.772;12.852;2022-12-11T02:26:06;5.70;;;5.20;;
8488;SDS011;4281;45.772;12.852;2022-12-11T02:28:44;5.50;;;5.00;;
8488;SDS011;4281;45.772;12.852;2022-12-11T02:31:15;5.23;;;4.83;;
8488;SDS011;4281;45.772;12.852;2022-12-11T02:33:50;6.00;;;5.50;;
8488;SDS011;4281;45.772;12.852;2022-12-11T02:36:20;5.60;;;5.10;;
8488;SDS011;4281;45.772;12.852;2022-12-11T02:38:50;5.80;;;5.30;;
8488;SDS011;4281;45.772;12.852;2022-12-11T03:18:00;6.10;;;5.50;;
8488;SDS011;4281;45.772;12.852;2022-12-11T03:20:33;6.10;;;5.53;;
8488;SDS011;4281;45.772;12.852;2022-12-11T03:23:07;5.43;;;4.93;;
8488;SDS011;4281;45.772;12.852;2022-12-11T03:25:41;5.20;;;4.70;;
8488;SDS011;4281;45.772;12.852;2022-12-11T03:28:11;5.50;;;5.00;;
8488;SDS011;4281;45.772;12.852;2022-12-11T03:30:42;5.23;;;4.77;;
8488;SDS011;4281;45.772;12.852;2022-12-11T03:33:12;5.50;;;5.00;;
8488;SDS011;4281;45.772;12.852;2022-12-11T03:35:46;5.73;;;5.23;;
8488;SDS011;4281;45.772;12.852;2022-12-11T03:38:17;5.23;;;4.73;;
8488;SDS011;4281;45.772;12.852;2022-12-11T03:40:48;5.60;;;5.00;;
8488;SDS011;4281;45.772;12.852;2022-12-11T03:43:19;5.60;;;5.10;;
8488;SDS011;4281;45.772;12.852;2022-12-11T03:45:48;5.23;;;4.73;;
8488;SDS011;4281;45.772;12.852;2022-12-11T03:48:18;5.63;;;5.13;;
8488;SDS011;4281;45.772;12.852;2022-12-11T03:50:47;5.20;;;4.80;;
8488;SDS011;4281;45.772;12.852;2022-12-11T03:53:16;5.30;;;4.83;;
8488;SDS011;4281;45.772;12.852;2022-12-11T03:55:45;5.60;;;5.10;;
8488;SDS011;4281;45.772;12.852;2022-12-11T03:58:13;5.60;;;5.10;;
8488;SDS011;4281;45.772;12.852;2022-12-11T04:00:41;5.20;;;4.80;;
8488;SDS011;4281;45.772;12.852;2022-12-11T04:03:08;5.80;;;5.30;;
8488;SDS011;4281;45.772;12.852;2022-12-11T04:05:42;5.50;;;5.00;;
8488;SDS011;4281;45.772;12.852;2022-12-11T04:08:11;5.37;;;4.87;;
8488;SDS011;4281;45.772;12.852;2022-12-11T04:10:39;5.50;;;5.00;;
8488;SDS011;4281;45.772;12.852;2022-12-11T04:13:07;5.40;;;4.90;;
8488;SDS011;4281;45.772;12.852;2022-12-11T04:15:35;5.07;;;4.67;;
8488;SDS011;4281;45.772;12.852;2022-12-11T04:18:03;5.30;;;4.80;;
8488;SDS011;4281;45.772;12.852;2022-12-11T04:20:51;5.73;;;5.23;;
8488;SDS011;4281;45.772;12.852;2022-12-11T04:23:48;5.33;;;4.73;;
8488;SDS011;4281;45.772;12.852;2022-12-11T04:26:34;4.83;;;4.40;;
8488;SDS011;4281;45.772;12.852;2022-12-11T04:29:01;5.13;;;4.63;;
8488;SDS011;4281;45.772;12.852;2022-12-11T04:31:29;5.00;;;4.60;;
8488;SDS011;4281;45.772;12.852;2022-12-11T04:33:57;5.23;;;4.73;;
8488;SDS011;4281;45.772;12.852;2022-12-11T04:36:26;5.00;;;4.60;;
8488;SDS011;4281;45.772;12.852;2022-12-11T04:38:54;4.57;;;4.17;;
8488;SDS011;4281;45.772;12.852;2022-12-11T04:41:22;4.87;;;4.47;;
8488;SDS011;4281;45.772;12.852;2022-12-11T04:43:51;4.63;;;4.10;;
8488;SDS011;4281;45.772;12.852;2022-12-11T04:46:20;5.00;;;4.60;;
8488;SDS011;4281;45.772;12.852;2022-12-11T04:48:50;5.00;;;4.60;;
8488;SDS011;4281;45.772;12.852;2022-12-11T04:51:23;5.20;;;4.80;;
8488;SDS011;4281;45.772;12.852;2022-12-11T04:53:53;4.90;;;4.50;;
8488;SDS011;4281;45.772;12.852;2022-12-11T04:56:22;5.00;;;4.60;;
8488;SDS011;4281;45.772;12.852;2022-12-11T04:58:53;4.90;;;4.50;;
8488;SDS011;4281;45.772;12.852;2022-12-11T05:01:33;4.77;;;4.37;;
8488;SDS011;4281;45.772;12.852;2022-12-11T05:04:09;5.17;;;4.67;;
8488;SDS011;4281;45.772;12.852;2022-12-11T05:06:49;4.73;;;4.33;;
8488;SDS011;4281;45.772;12.852;2022-12-11T05:09:27;4.70;;;4.30;;
8488;SDS011;4281;45.772;12.852;2022-12-11T05:12:05;4.97;;;4.50;;
8488;SDS011;4281;45.772;12.852;2022-12-11T05:14:43;4.60;;;4.20;;
8488;SDS011;4281;45.772;12.852;2022-12-11T05:17:22;4.90;;;4.00;;
8488;SDS011;4281;45.772;12.852;2022-12-11T05:19:59;4.37;;;3.97;;
8488;SDS011;4281;45.772;12.852;2022-12-11T05:22:38;5.03;;;4.53;;
8488;SDS011;4281;45.772;12.852;2022-12-11T05:25:18;4.57;;;4.27;;
8488;SDS011;4281;45.772;12.852;2022-12-11T05:27:56;4.77;;;4.37;;
8488;SDS011;4281;45.772;12.852;2022-12-11T05:30:34;5.10;;;4.60;;
8488;SDS011;4281;45.772;12.852;2022-12-11T05:33:11;4.80;;;4.37;;
8488;SDS011;4281;45.772;12.852;2022-12-11T05:35:47;4.80;;;4.40;;
8488;SDS011;4281;45.772;12.852;2022-12-11T05:38:26;4.80;;;4.40;;
8488;SDS011;4281;45.772;12.852;2022-12-11T05:41:06;5.33;;;4.80;;
8488;SDS011;4281;45.772;12.852;2022-12-11T05:43:42;5.40;;;4.97;;
8488;SDS011;4281;45.772;12.852;2022-12-11T05:46:20;5.10;;;4.70;;
8488;SDS011;4281;45.772;12.852;2022-12-11T05:48:59;5.43;;;4.93;;
8488;SDS011;4281;45.772;12.852;2022-12-11T05:51:38;5.93;;;5.43;;
8488;SDS011;4281;45.772;12.852;2022-12-11T05:54:17;5.40;;;4.90;;
8488;SDS011;4281;45.772;12.852;2022-12-11T05:56:57;5.30;;;4.80;;
8488;SDS011;4281;45.772;12.852;2022-12-11T05:59:36;5.60;;;5.10;;
8488;SDS011;4281;45.772;12.852;2022-12-11T06:02:16;5.53;;;5.03;;
8488;SDS011;4281;45.772;12.852;2022-12-11T06:04:53;5.60;;;5.10;;
8488;SDS011;4281;45.772;12.852;2022-12-11T06:07:30;5.83;;;5.33;;
8488;SDS011;4281;45.772;12.852;2022-12-11T06:10:09;6.07;;;5.47;;
8488;SDS011;4281;45.772;12.852;2022-12-11T06:12:49;5.80;;;5.20;;
8488;SDS011;4281;45.772;12.852;2022-12-11T06:15:26;4.40;;;4.00;;
8488;SDS011;4281;45.772;12.852;2022-12-11T06:17:54;5.20;;;4.70;;
8488;SDS011;4281;45.772;12.852;2022-12-11T06:20:21;4.93;;;4.43;;
8488;SDS011;4281;45.772;12.852;2022-12-11T06:22:49;4.30;;;4.00;;
8488;SDS011;4281;45.772;12.852;2022-12-11T06:25:17;3.20;;;3.00;;
8488;SDS011;4281;45.772;12.852;2022-12-11T06:27:45;2.17;;;1.97;;
8488;SDS011;4281;45.772;12.852;2022-12-11T06:30:14;1.60;;;1.40;;
8488;SDS011;4281;45.772;12.852;2022-12-11T06:33:04;1.30;;;1.20;;
8488;SDS011;4281;45.772;12.852;2022-12-11T06:35:32;1.20;;;1.10;;
8488;SDS011;4281;45.772;12.852;2022-12-11T06:38:08;1.33;;;1.10;;
8488;SDS011;4281;45.772;12.852;2022-12-11T06:40:53;1.00;;;0.90;;
8488;SDS011;4281;45.772;12.852;2022-12-11T06:43:34;1.20;;;1.00;;
8488;SDS011;4281;45.772;12.852;2022-12-11T06:46:14;1.10;;;0.93;;
8488;SDS011;4281;45.772;12.852;2022-12-11T06:48:54;1.30;;;1.20;;
8488;SDS011;4281;45.772;12.852;2022-12-11T06:51:32;1.43;;;1.20;;
8488;SDS011;4281;45.772;12.852;2022-12-11T06:54:08;1.30;;;1.20;;
8488;SDS011;4281;45.772;12.852;2022-12-11T06:56:37;1.57;;;1.47;;
8488;SDS011;4281;45.772;12.852;2022-12-11T06:59:17;1.20;;;1.10;;
8488;SDS011;4281;45.772;12.852;2022-12-11T07:01:53;1.00;;;1.00;;
8488;SDS011;4281;45.772;12.852;2022-12-11T07:04:21;0.93;;;0.83;;
8488;SDS011;4281;45.772;12.852;2022-12-11T07:06:50;1.80;;;1.10;;
8488;SDS011;4281;45.772;12.852;2022-12-11T07:09:18;0.97;;;0.97;;
8488;SDS011;4281;45.772;12.852;2022-12-11T07:11:48;0.90;;;0.90;;
8488;SDS011;4281;45.772;12.852;2022-12-11T07:14:19;0.97;;;0.90;;
8488;SDS011;4281;45.772;12.852;2022-12-11T07:16:58;1.10;;;1.00;;
8488;SDS011;4281;45.772;12.852;2022-12-11T07:19:35;1.07;;;1.00;;
8488;SDS011;4281;45.772;12.852;2022-12-11T07:22:12;1.10;;;1.00;;
8488;SDS011;4281;45.772;12.852;2022-12-11T07:24:40;1.53;;;1.20;;
8488;SDS011;4281;45.772;12.852;2022-12-11T07:27:10;1.10;;;1.00;;
8488;SDS011;4281;45.772;12.852;2022-12-11T07:29:48;1.07;;;1.00;;
8488;SDS011;4281;45.772;12.852;2022-12-11T07:32:29;2.43;;;1.70;;
8488;SDS011;4281;45.772;12.852;2022-12-11T07:35:07;1.40;;;1.30;;
8488;SDS011;4281;45.772;12.852;2022-12-11T07:37:44;1.40;;;1.30;;
8488;SDS011;4281;45.772;12.852;2022-12-11T07:40:22;1.30;;;1.20;;
8488;SDS011;4281;45.772;12.852;2022-12-11T07:43:00;1.80;;;1.70;;
8488;SDS011;4281;45.772;12.852;2022-12-11T07:45:29;1.97;;;1.87;;
8488;SDS011;4281;45.772;12.852;2022-12-11T07:47:57;1.90;;;1.80;;
8488;SDS011;4281;45.772;12.852;2022-12-11T07:50:26;1.73;;;1.63;;
8488;SDS011;4281;45.772;12.852;2022-12-11T07:52:54;1.97;;;1.87;;
8488;SDS011;4281;45.772;12.852;2022-12-11T07:55:23;1.57;;;1.47;;
8488;SDS011;4281;45.772;12.852;2022-12-11T07:57:59;1.67;;;1.57;;
8488;SDS011;4281;45.772;12.852;2022-12-11T08:00:28;1.90;;;1.80;;
8488;SDS011;4281;45.772;12.852;2022-12-11T08:02:56;1.50;;;1.40;;
8488;SDS011;4281;45.772;12.852;2022-12-11T08:05:25;1.90;;;1.80;;
8488;SDS011;4281;45.772;12.852;2022-12-11T08:07:54;1.87;;;1.77;;
8488;SDS011;4281;45.772;12.852;2022-12-11T08:10:22;1.80;;;1.70;;
8488;SDS011;4281;45.772;12.852;2022-12-11T08:12:50;1.60;;;1.50;;
8488;SDS011;4281;45.772;12.852;2022-12-11T08:15:18;1.90;;;1.80;;
8488;SDS011;4281;45.772;12.852;2022-12-11T08:17:47;1.70;;;1.60;;
8488;SDS011;4281;45.772;12.852;2022-12-11T08:20:14;1.67;;;1.57;;
8488;SDS011;4281;45.772;12.852;2022-12-11T08:22:42;1.40;;;1.30;;
8488;SDS011;4281;45.772;12.852;2022-12-11T08:25:10;1.70;;;1.60;;
8488;SDS011;4281;45.772;12.852;2022-12-11T08:27:38;2.00;;;1.77;;
8488;SDS011;4281;45.772;12.852;2022-12-11T08:30:06;1.90;;;1.80;;
8488;SDS011;4281;45.772;12.852;2022-12-11T08:32:35;1.90;;;1.70;;
8488;SDS011;4281;45.772;12.852;2022-12-11T08:35:04;1.90;;;1.70;;
8488;SDS011;4281;45.772;12.852;2022-12-11T08:37:33;1.70;;;1.60;;
8488;SDS011;4281;45.772;12.852;2022-12-11T08:40:01;1.43;;;1.33;;
8488;SDS011;4281;45.772;12.852;2022-12-11T08:42:29;1.53;;;1.43;;
8488;SDS011;4281;45.772;12.852;2022-12-11T08:44:56;1.57;;;1.47;;
8488;SDS011;4281;45.772;12.852;2022-12-11T08:47:25;1.60;;;1.50;;
8488;SDS011;4281;45.772;12.852;2022-12-11T08:49:54;1.77;;;1.67;;
8488;SDS011;4281;45.772;12.852;2022-12-11T08:52:23;1.60;;;1.50;;
8488;SDS011;4281;45.772;12.852;2022-12-11T08:54:51;1.40;;;1.30;;
8488;SDS011;4281;45.772;12.852;2022-12-11T08:57:19;1.77;;;1.67;;
8488;SDS011;4281;45.772;12.852;2022-12-11T08:59:47;1.37;;;1.27;;
8488;SDS011;4281;45.772;12.852;2022-12-11T09:02:15;1.63;;;1.53;;
8488;SDS011;4281;45.772;12.852;2022-12-11T09:04:43;2.00;;;1.80;;
8488;SDS011;4281;45.772;12.852;2022-12-11T09:07:11;2.40;;;2.20;;
8488;SDS011;4281;45.772;12.852;2022-12-11T09:09:40;2.77;;;2.40;;
8488;SDS011;4281;45.772;12.852;2022-12-11T09:12:09;2.30;;;2.03;;
8488;SDS011;4281;45.772;12.852;2022-12-11T09:14:37;2.23;;;2.03;;
8488;SDS011;4281;45.772;12.852;2022-12-11T09:17:06;1.60;;;1.50;;
8488;SDS011;4281;45.772;12.852;2022-12-11T09:19:34;1.63;;;1.53;;
8488;SDS011;4281;45.772;12.852;2022-12-11T09:22:02;1.40;;;1.30;;
8488;SDS011;4281;45.772;12.852;2022-12-11T09:24:31;1.30;;;1.20;;
8488;SDS011;4281;45.772;12.852;2022-12-11T09:27:05;1.50;;;1.40;;
8488;SDS011;4281;45.772;12.852;2022-12-11T09:32:08;1.93;;;1.50;;
8488;SDS011;4281;45.772;12.852;2022-12-11T09:34:36;1.53;;;1.43;;
8488;SDS011;4281;45.772;12.852;2022-12-11T09:37:04;2.13;;;1.40;;
8488;SDS011;4281;45.772;12.852;2022-12-11T09:39:33;2.20;;;1.53;;
8488;SDS011;4281;45.772;12.852;2022-12-11T09:48:13;1.30;;;1.20;;
8488;SDS011;4281;45.772;12.852;2022-12-11T09:50:43;2.37;;;1.70;;
8488;SDS011;4281;45.772;12.852;2022-12-11T09:53:12;1.80;;;1.60;;
8488;SDS011;4281;45.772;12.852;2022-12-11T09:55:45;1.70;;;1.60;;
8488;SDS011;4281;45.772;12.852;2022-12-11T09:58:17;2.17;;;1.70;;
8488;SDS011;4281;45.772;12.852;2022-12-11T10:00:52;1.70;;;1.60;;
8488;SDS011;4281;45.772;12.852;2022-12-11T10:03:30;1.60;;;1.50;;
8488;SDS011;4281;45.772;12.852;2022-12-11T10:06:06;3.00;;;1.73;;
8488;SDS011;4281;45.772;12.852;2022-12-11T10:08:41;1.30;;;1.20;;
8488;SDS011;4281;45.772;12.852;2022-12-11T10:11:20;1.50;;;1.40;;
8488;SDS011;4281;45.772;12.852;2022-12-11T10:13:56;2.27;;;1.60;;
8488;SDS011;4281;45.772;12.852;2022-12-11T10:16:31;1.73;;;1.37;;
8488;SDS011;4281;45.772;12.852;2022-12-11T10:19:03;1.67;;;1.57;;
8488;SDS011;4281;45.772;12.852;2022-12-11T10:21:37;1.60;;;1.50;;
8488;SDS011;4281;45.772;12.852;2022-12-11T10:24:09;2.20;;;1.43;;
8488;SDS011;4281;45.772;12.852;2022-12-11T10:27:07;1.90;;;1.70;;
8488;SDS011;4281;45.772;12.852;2022-12-11T10:29:40;1.70;;;1.60;;
8488;SDS011;4281;45.772;12.852;2022-12-11T10:32:10;1.77;;;1.60;;
8488;SDS011;4281;45.772;12.852;2022-12-11T10:34:44;1.77;;;1.60;;
8488;SDS011;4281;45.772;12.852;2022-12-11T10:37:14;1.40;;;1.30;;
8488;SDS011;4281;45.772;12.852;2022-12-11T10:39:41;1.53;;;1.43;;
8488;SDS011;4281;45.772;12.852;2022-12-11T10:42:13;1.50;;;1.40;;
8488;SDS011;4281;45.772;12.852;2022-12-11T10:44:53;1.83;;;1.73;;
8488;SDS011;4281;45.772;12.852;2022-12-11T10:47:23;1.77;;;1.67;;
8488;SDS011;4281;45.772;12.852;2022-12-11T10:49:58;2.20;;;2.00;;
8488;SDS011;4281;45.772;12.852;2022-12-11T10:52:28;2.70;;;1.90;;
8488;SDS011;4281;45.772;12.852;2022-12-11T10:54:59;1.83;;;1.73;;
8488;SDS011;4281;45.772;12.852;2022-12-11T10:57:28;1.80;;;1.60;;
8488;SDS011;4281;45.772;12.852;2022-12-11T10:59:57;1.50;;;1.40;;
8488;SDS011;4281;45.772;12.852;2022-12-11T11:02:26;1.40;;;1.30;;
8488;SDS011;4281;45.772;12.852;2022-12-11T11:04:56;2.00;;;1.50;;
8488;SDS011;4281;45.772;12.852;2022-12-11T11:07:27;1.93;;;1.83;;
8488;SDS011;4281;45.772;12.852;2022-12-11T11:10:03;2.43;;;1.80;;
8488;SDS011;4281;45.772;12.852;2022-12-11T11:12:35;2.00;;;1.60;;
8488;SDS011;4281;45.772;12.852;2022-12-11T11:15:05;2.03;;;1.80;;
8488;SDS011;4281;45.772;12.852;2022-12-11T11:17:40;1.60;;;1.50;;
8488;SDS011;4281;45.772;12.852;2022-12-11T11:20:22;1.90;;;1.63;;
8488;SDS011;4281;45.772;12.852;2022-12-11T11:22:52;2.07;;;1.80;;
8488;SDS011;4281;45.772;12.852;2022-12-11T11:25:22;2.37;;;2.17;;
8488;SDS011;4281;45.772;12.852;2022-12-11T11:27:51;2.00;;;1.50;;
8488;SDS011;4281;45.772;12.852;2022-12-11T11:30:21;2.47;;;1.77;;
8488;SDS011;4281;45.772;12.852;2022-12-11T11:32:50;2.50;;;1.67;;
8488;SDS011;4281;45.772;12.852;2022-12-11T11:35:23;1.60;;;1.30;;
8488;SDS011;4281;45.772;12.852;2022-12-11T11:37:53;1.67;;;1.57;;
8488;SDS011;4281;45.772;12.852;2022-12-11T11:40:27;1.93;;;1.83;;
8488;SDS011;4281;45.772;12.852;2022-12-11T12:06:19;1.67;;;1.57;;
8488;SDS011;4281;45.772;12.852;2022-12-11T12:08:56;1.77;;;1.60;;
8488;SDS011;4281;45.772;12.852;2022-12-11T12:11:29;1.60;;;1.50;;
8488;SDS011;4281;45.772;12.852;2022-12-11T12:14:11;1.67;;;1.57;;
8488;SDS011;4281;45.772;12.852;2022-12-11T12:17:13;1.50;;;1.40;;
8488;SDS011;4281;45.772;12.852;2022-12-11T12:19:57;1.93;;;1.80;;
8488;SDS011;4281;45.772;12.852;2022-12-11T12:22:44;1.80;;;1.70;;
8488;SDS011;4281;45.772;12.852;2022-12-11T12:25:31;1.80;;;1.70;;
8488;SDS011;4281;45.772;12.852;2022-12-11T12:28:14;2.67;;;2.07;;
8488;SDS011;4281;45.772;12.852;2022-12-11T12:30:58;1.87;;;1.77;;
8488;SDS011;4281;45.772;12.852;2022-12-11T12:33:44;2.30;;;2.10;;
8488;SDS011;4281;45.772;12.852;2022-12-11T12:36:24;2.27;;;2.07;;
8488;SDS011;4281;45.772;12.852;2022-12-11T12:38:57;2.10;;;1.90;;
8488;SDS011;4281;45.772;12.852;2022-12-11T12:41:30;2.40;;;2.20;;
8488;SDS011;4281;45.772;12.852;2022-12-11T12:44:13;3.90;;;2.73;;
8488;SDS011;4281;45.772;12.852;2022-12-11T12:46:46;3.07;;;2.57;;
8488;SDS011;4281;45.772;12.852;2022-12-11T12:49:20;3.20;;;2.63;;
8488;SDS011;4281;45.772;12.852;2022-12-11T12:52:05;2.80;;;2.30;;
8488;SDS011;4281;45.772;12.852;2022-12-11T12:54:35;3.57;;;2.60;;
8488;SDS011;4281;45.772;12.852;2022-12-11T12:57:05;2.47;;;2.27;;
8488;SDS011;4281;45.772;12.852;2022-12-11T12:59:34;2.80;;;2.30;;
8488;SDS011;4281;45.772;12.852;2022-12-11T13:02:03;2.50;;;2.30;;
8488;SDS011;4281;45.772;12.852;2022-12-11T13:04:36;2.63;;;2.43;;
8488;SDS011;4281;45.772;12.852;2022-12-11T13:07:22;2.50;;;2.30;;
8488;SDS011;4281;45.772;12.852;2022-12-11T13:10:02;2.37;;;1.80;;
8488;SDS011;4281;45.772;12.852;2022-12-11T13:12:38;2.30;;;2.10;;
8488;SDS011;4281;45.772;12.852;2022-12-11T13:15:26;2.20;;;2.00;;
8488;SDS011;4281;45.772;12.852;2022-12-11T13:21:26;2.20;;;2.00;;
8488;SDS011;4281;45.772;12.852;2022-12-11T13:26:52;2.50;;;2.30;;
8488;SDS011;4281;45.772;12.852;2022-12-11T13:29:33;2.07;;;1.87;;
8488;SDS011;4281;45.772;12.852;2022-12-11T13:32:04;2.37;;;2.17;;
8488;SDS011;4281;45.772;12.852;2022-12-11T13:34:49;2.10;;;1.97;;
8488;SDS011;4281;45.772;12.852;2022-12-11T13:37:20;2.20;;;1.87;;
8488;SDS011;4281;45.772;12.852;2022-12-11T13:39:52;2.00;;;1.80;;
8488;SDS011;4281;45.772;12.852;2022-12-11T13:42:22;2.47;;;2.27;;
8488;SDS011;4281;45.772;12.852;2022-12-11T13:44:53;2.67;;;2.10;;
8488;SDS011;4281;45.772;12.852;2022-12-11T13:47:21;2.30;;;2.10;;
8488;SDS011;4281;45.772;12.852;2022-12-11T13:49:51;1.93;;;1.83;;
8488;SDS011;4281;45.772;12.852;2022-12-11T13:52:21;2.33;;;2.13;;
8488;SDS011;4281;45.772;12.852;2022-12-11T13:54:51;3.00;;;2.70;;
8488;SDS011;4281;45.772;12.852;2022-12-11T13:57:23;3.13;;;2.83;;
8488;SDS011;4281;45.772;12.852;2022-12-11T13:59:51;2.70;;;2.50;;
8488;SDS011;4281;45.772;12.852;2022-12-11T14:02:21;3.10;;;2.80;;
8488;SDS011;4281;45.772;12.852;2022-12-11T14:04:51;2.90;;;2.70;;
8488;SDS011;4281;45.772;12.852;2022-12-11T14:07:22;3.00;;;2.80;;
8488;SDS011;4281;45.772;12.852;2022-12-11T14:09:52;2.63;;;2.43;;
8488;SDS011;4281;45.772;12.852;2022-12-11T14:12:26;3.00;;;2.70;;
8488;SDS011;4281;45.772;12.852;2022-12-11T14:14:55;2.93;;;2.63;;
8488;SDS011;4281;45.772;12.852;2022-12-11T14:17:25;3.20;;;2.90;;
8488;SDS011;4281;45.772;12.852;2022-12-11T14:19:55;2.70;;;2.50;;
8488;SDS011;4281;45.772;12.852;2022-12-11T14:22:25;3.53;;;3.23;;
8488;SDS011;4281;45.772;12.852;2022-12-11T14:24:54;3.00;;;2.70;;
8488;SDS011;4281;45.772;12.852;2022-12-11T14:27:23;2.77;;;2.57;;
8488;SDS011;4281;45.772;12.852;2022-12-11T14:29:52;2.80;;;2.50;;
8488;SDS011;4281;45.772;12.852;2022-12-11T14:32:23;3.00;;;2.63;;
8488;SDS011;4281;45.772;12.852;2022-12-11T14:34:55;3.07;;;2.77;;
8488;SDS011;4281;45.772;12.852;2022-12-11T14:37:23;3.00;;;2.80;;
8488;SDS011;4281;45.772;12.852;2022-12-11T14:39:55;2.73;;;2.47;;
8488;SDS011;4281;45.772;12.852;2022-12-11T14:42:25;2.70;;;2.47;;
8488;SDS011;4281;45.772;12.852;2022-12-11T14:44:56;2.17;;;1.97;;
8488;SDS011;4281;45.772;12.852;2022-12-11T14:47:29;2.50;;;2.23;;
8488;SDS011;4281;45.772;12.852;2022-12-11T14:50:00;2.57;;;2.37;;
8488;SDS011;4281;45.772;12.852;2022-12-11T14:52:31;2.60;;;2.30;;
8488;SDS011;4281;45.772;12.852;2022-12-11T14:55:01;2.40;;;2.20;;
8488;SDS011;4281;45.772;12.852;2022-12-11T14:57:32;2.30;;;2.10;;
8488;SDS011;4281;45.772;12.852;2022-12-11T15:00:02;2.20;;;2.00;;
8488;SDS011;4281;45.772;12.852;2022-12-11T15:02:32;2.37;;;2.17;;
8488;SDS011;4281;45.772;12.852;2022-12-11T15:05:04;2.27;;;2.07;;
8488;SDS011;4281;45.772;12.852;2022-12-11T15:07:38;1.97;;;1.80;;
8488;SDS011;4281;45.772;12.852;2022-12-11T15:10:19;2.43;;;2.07;;
8488;SDS011;4281;45.772;12.852;2022-12-11T15:12:48;1.93;;;1.80;;
8488;SDS011;4281;45.772;12.852;2022-12-11T15:15:18;2.80;;;2.20;;
8488;SDS011;4281;45.772;12.852;2022-12-11T15:17:46;2.43;;;2.20;;
8488;SDS011;4281;45.772;12.852;2022-12-11T15:20:20;2.60;;;2.37;;
8488;SDS011;4281;45.772;12.852;2022-12-11T15:22:49;2.40;;;2.20;;
8488;SDS011;4281;45.772;12.852;2022-12-11T15:25:18;2.30;;;2.10;;
8488;SDS011;4281;45.772;12.852;2022-12-11T15:27:48;2.43;;;2.23;;
8488;SDS011;4281;45.772;12.852;2022-12-11T15:30:29;2.93;;;2.63;;
8488;SDS011;4281;45.772;12.852;2022-12-11T15:33:18;4.00;;;3.53;;
8488;SDS011;4281;45.772;12.852;2022-12-11T15:35:54;4.17;;;3.67;;
8488;SDS011;4281;45.772;12.852;2022-12-11T15:38:27;4.47;;;3.40;;
8488;SDS011;4281;45.772;12.852;2022-12-11T15:41:00;3.53;;;3.13;;
8488;SDS011;4281;45.772;12.852;2022-12-11T15:43:36;3.90;;;3.13;;
8488;SDS011;4281;45.772;12.852;2022-12-11T15:46:06;3.33;;;2.70;;
8488;SDS011;4281;45.772;12.852;2022-12-11T15:48:34;3.80;;;3.10;;
8488;SDS011;4281;45.772;12.852;2022-12-11T15:51:01;3.43;;;2.77;;
8488;SDS011;4281;45.772;12.852;2022-12-11T15:53:29;3.50;;;3.20;;
8488;SDS011;4281;45.772;12.852;2022-12-11T15:55:57;3.07;;;2.77;;
8488;SDS011;4281;45.772;12.852;2022-12-11T15:58:25;3.57;;;3.13;;
8488;SDS011;4281;45.772;12.852;2022-12-11T16:00:54;3.23;;;2.93;;
8488;SDS011;4281;45.772;12.852;2022-12-11T16:03:24;2.60;;;2.40;;
8488;SDS011;4281;45.772;12.852;2022-12-11T16:05:52;4.20;;;3.53;;
8488;SDS011;4281;45.772;12.852;2022-12-11T16:08:21;3.60;;;2.90;;
8488;SDS011;4281;45.772;12.852;2022-12-11T16:10:50;3.33;;;3.03;;
8488;SDS011;4281;45.772;12.852;2022-12-11T16:13:18;2.90;;;2.70;;
8488;SDS011;4281;45.772;12.852;2022-12-11T16:15:47;2.60;;;2.40;;
8488;SDS011;4281;45.772;12.852;2022-12-11T16:18:17;2.63;;;2.43;;
8488;SDS011;4281;45.772;12.852;2022-12-11T16:20:49;2.70;;;2.33;;
8488;SDS011;4281;45.772;12.852;2022-12-11T16:23:17;2.70;;;2.50;;
8488;SDS011;4281;45.772;12.852;2022-12-11T16:25:45;2.37;;;2.17;;
8488;SDS011;4281;45.772;12.852;2022-12-11T16:28:13;2.40;;;2.20;;
8488;SDS011;4281;45.772;12.852;2022-12-11T16:30:42;2.63;;;2.10;;
8488;SDS011;4281;45.772;12.852;2022-12-11T16:33:10;2.40;;;2.20;;
8488;SDS011;4281;45.772;12.852;2022-12-11T16:35:39;2.90;;;2.70;;
8488;SDS011;4281;45.772;12.852;2022-12-11T16:38:09;3.10;;;2.80;;
8488;SDS011;4281;45.772;12.852;2022-12-11T16:40:38;3.27;;;2.97;;
8488;SDS011;4281;45.772;12.852;2022-12-11T16:43:06;3.73;;;3.43;;
8488;SDS011;4281;45.772;12.852;2022-12-11T16:45:34;4.40;;;3.50;;
8488;SDS011;4281;45.772;12.852;2022-12-11T16:48:02;3.80;;;3.50;;
8488;SDS011;4281;45.772;12.852;2022-12-11T16:50:30;3.70;;;3.40;;
8488;SDS011;4281;45.772;12.852;2022-12-11T16:52:58;4.10;;;3.70;;